createdAt,value
2019-03-26T00:00:34.553Z,7.37
2019-03-26T00:03:03.656Z,6.92
2019-03-26T00:05:32.093Z,6.50
2019-03-26T00:08:00.520Z,6.70
2019-03-26T00:10:28.945Z,6.72
2019-03-26T00:12:57.385Z,7.83
2019-03-26T00:15:25.814Z,7.12
2019-03-26T00:17:54.249Z,7.37
2019-03-26T00:20:22.977Z,7.33
2019-03-26T00:22:51.413Z,7.60
2019-03-26T00:25:19.913Z,7.35
2019-03-26T00:27:48.442Z,8.03
2019-03-26T00:30:17.014Z,7.00
2019-03-26T00:32:45.460Z,6.65
2019-03-26T00:35:13.951Z,8.13
2019-03-26T00:37:42.405Z,8.10
2019-03-26T00:40:11.165Z,7.95
2019-03-26T00:42:39.617Z,7.83
2019-03-26T00:45:08.218Z,7.97
2019-03-26T00:47:36.671Z,7.55
2019-03-26T00:50:06.625Z,8.15
2019-03-26T00:52:35.148Z,8.18
2019-03-26T00:55:04.917Z,8.68
2019-03-26T00:57:33.381Z,8.10
2019-03-26T01:00:02.545Z,8.63
2019-03-26T01:02:30.980Z,8.80
2019-03-26T01:04:59.406Z,8.55
2019-03-26T01:07:28.128Z,9.28
2019-03-26T01:09:56.918Z,8.45
2019-03-26T01:12:25.372Z,9.93
2019-03-26T01:14:53.805Z,9.20
2019-03-26T01:17:22.671Z,9.58
2019-03-26T01:19:51.375Z,9.13
2019-03-26T01:22:19.819Z,9.43
2019-03-26T01:24:48.242Z,9.03
2019-03-26T01:27:16.680Z,9.43
2019-03-26T01:29:45.361Z,10.20
2019-03-26T01:32:13.805Z,9.70
2019-03-26T01:34:46.192Z,9.95
2019-03-26T01:37:12.415Z,10.32
2019-03-26T01:39:40.918Z,10.20
2019-03-26T01:42:09.361Z,9.98
2019-03-26T01:44:37.794Z,10.48
2019-03-26T01:47:06.237Z,10.53
2019-03-26T01:49:34.978Z,11.38
2019-03-26T01:52:03.430Z,10.88
2019-03-26T01:54:31.853Z,11.43
2019-03-26T01:57:00.303Z,11.53
2019-03-26T01:59:28.733Z,11.28
2019-03-26T02:01:57.436Z,12.53
2019-03-26T02:04:25.872Z,12.40
2019-03-26T02:06:54.312Z,13.13
2019-03-26T02:09:22.742Z,12.78
2019-03-26T02:11:51.190Z,11.28
2019-03-26T02:14:19.894Z,12.88
2019-03-26T02:16:48.338Z,12.33
2019-03-26T02:19:16.774Z,12.43
2019-03-26T02:21:45.305Z,13.28
2019-03-26T02:24:13.757Z,13.00
2019-03-26T02:26:42.186Z,12.70
2019-03-26T02:29:10.633Z,14.35
2019-03-26T02:31:39.082Z,11.93
2019-03-26T02:34:07.519Z,12.37
2019-03-26T02:36:36.131Z,14.03
2019-03-26T02:39:06.414Z,13.10
2019-03-26T02:41:37.807Z,14.15
2019-03-26T02:44:05.132Z,12.50
2019-03-26T02:46:33.573Z,14.25
2019-03-26T02:49:02.007Z,13.65
2019-03-26T02:51:30.439Z,13.03
2019-03-26T02:53:58.902Z,12.95
2019-03-26T02:56:27.340Z,13.22
2019-03-26T02:58:55.787Z,14.13
2019-03-26T03:01:24.547Z,14.60
2019-03-26T03:03:53.010Z,14.58
2019-03-26T03:06:21.506Z,14.83
2019-03-26T03:08:50.283Z,14.18
2019-03-26T03:11:18.714Z,15.08
2019-03-26T03:13:47.161Z,13.78
2019-03-26T03:16:15.603Z,15.13
2019-03-26T03:18:44.041Z,13.72
2019-03-26T03:21:12.473Z,15.28
2019-03-26T03:23:40.919Z,15.58
2019-03-26T03:26:09.356Z,14.40
2019-03-26T03:28:37.790Z,14.43
2019-03-26T03:31:06.222Z,14.90
2019-03-26T03:33:34.666Z,14.18
2019-03-26T03:36:03.112Z,14.28
2019-03-26T03:38:31.621Z,15.08
2019-03-26T03:41:00.367Z,14.43
2019-03-26T03:43:29.653Z,14.75
2019-03-26T03:45:58.933Z,15.44
2019-03-26T03:48:27.461Z,15.00
2019-03-26T03:50:57.045Z,16.02
2019-03-26T03:53:26.421Z,14.85
2019-03-26T03:55:56.095Z,15.00
2019-03-26T03:58:25.674Z,15.18
2019-03-26T04:00:54.108Z,15.68
2019-03-26T04:03:22.549Z,14.45
2019-03-26T04:06:07.697Z,15.40
2019-03-26T04:08:21.150Z,14.78
2019-03-26T04:10:49.584Z,15.63
2019-03-26T04:13:18.029Z,15.50
2019-03-26T04:15:46.466Z,15.43
2019-03-26T04:18:14.909Z,15.18
2019-03-26T04:20:43.350Z,16.27
2019-03-26T04:23:11.822Z,16.02
2019-03-26T04:25:40.242Z,15.72
2019-03-26T04:28:09.360Z,16.23
2019-03-26T04:30:37.781Z,16.23
2019-03-26T04:33:06.253Z,16.00
2019-03-26T04:35:34.690Z,16.02
2019-03-26T04:38:03.118Z,15.95
2019-03-26T04:40:31.562Z,16.00
2019-03-26T04:43:00.095Z,15.88
2019-03-26T04:45:28.529Z,16.15
2019-03-26T04:47:56.975Z,16.27
2019-03-26T04:50:25.409Z,15.48
2019-03-26T04:52:54.324Z,16.15
2019-03-26T04:55:23.085Z,15.98
2019-03-26T04:57:51.545Z,15.68
2019-03-26T05:00:20.613Z,15.85
2019-03-26T05:02:49.127Z,16.73
2019-03-26T05:05:17.558Z,17.12
2019-03-26T05:07:46.001Z,14.78
2019-03-26T05:10:14.500Z,18.48
2019-03-26T05:12:42.945Z,17.30
2019-03-26T05:15:11.649Z,16.35
2019-03-26T05:17:40.097Z,16.90
2019-03-26T05:20:08.669Z,18.35
2019-03-26T05:22:37.105Z,17.45
2019-03-26T05:25:07.550Z,18.62
2019-03-26T05:27:45.160Z,16.45
2019-03-26T05:30:08.555Z,18.67
2019-03-26T05:32:37.057Z,16.82
2019-03-26T05:35:06.433Z,16.97
2019-03-26T05:37:34.935Z,18.35
2019-03-26T05:40:04.829Z,18.30
2019-03-26T05:42:33.261Z,16.87
2019-03-26T05:45:01.713Z,16.90
2019-03-26T05:47:30.150Z,17.02
2019-03-26T05:49:58.599Z,17.70
2019-03-26T05:52:27.036Z,16.25
2019-03-26T05:54:55.484Z,16.00
2019-03-26T05:57:23.948Z,17.23
2019-03-26T05:59:52.440Z,16.60
2019-03-26T06:02:20.906Z,17.62
2019-03-26T06:04:49.650Z,17.37
2019-03-26T06:07:18.081Z,15.45
2019-03-26T06:09:46.546Z,18.05
2019-03-26T06:12:15.238Z,15.85
2019-03-26T06:14:43.685Z,16.25
2019-03-26T06:17:12.116Z,14.85
2019-03-26T06:19:40.565Z,16.12
2019-03-26T06:22:09.001Z,16.40
2019-03-26T06:24:37.450Z,16.17
2019-03-26T06:27:05.890Z,14.70
2019-03-26T06:29:34.335Z,15.45
2019-03-26T06:32:02.868Z,15.90
2019-03-26T06:34:31.309Z,17.20
2019-03-26T06:36:59.989Z,16.40
2019-03-26T06:39:28.433Z,16.75
2019-03-26T06:41:56.866Z,16.85
2019-03-26T06:44:25.311Z,16.25
2019-03-26T06:46:53.741Z,16.73
2019-03-26T06:49:22.206Z,16.75
2019-03-26T06:51:50.683Z,16.73
2019-03-26T06:54:19.107Z,17.15
2019-03-26T06:56:47.561Z,16.75
2019-03-26T06:59:15.999Z,16.05
2019-03-26T07:01:44.425Z,14.78
2019-03-26T07:04:12.858Z,12.28
2019-03-26T07:06:41.326Z,15.80
2019-03-26T07:09:09.754Z,14.35
2019-03-26T07:11:38.203Z,14.33
2019-03-26T07:14:06.634Z,12.65
2019-03-26T07:16:35.081Z,13.25
2019-03-26T07:19:03.830Z,12.82
2019-03-26T07:21:32.273Z,13.30
2019-03-26T07:24:00.776Z,12.78
2019-03-26T07:26:29.233Z,13.10
2019-03-26T07:28:57.665Z,12.63
2019-03-26T07:31:26.125Z,13.90
2019-03-26T07:33:54.821Z,11.40
2019-03-26T07:36:23.286Z,12.18
2019-03-26T07:38:51.722Z,13.03
2019-03-26T07:41:20.177Z,13.22
2019-03-26T07:43:48.614Z,12.80
2019-03-26T07:46:17.100Z,12.28
2019-03-26T07:48:45.528Z,13.28
2019-03-26T07:51:14.295Z,11.13
2019-03-26T07:53:42.737Z,11.68
2019-03-26T07:56:11.175Z,11.50
2019-03-26T07:58:39.614Z,11.05
2019-03-26T08:01:08.134Z,9.87
2019-03-26T08:03:36.569Z,12.00
2019-03-26T08:06:05.009Z,11.77
2019-03-26T08:08:33.446Z,11.68
2019-03-26T08:11:01.962Z,11.10
2019-03-26T08:13:30.425Z,11.35
2019-03-26T08:15:59.082Z,12.98
2019-03-26T08:18:27.513Z,12.80
2019-03-26T08:20:57.423Z,12.37
2019-03-26T08:23:26.093Z,11.20
2019-03-26T08:25:54.538Z,11.25
2019-03-26T08:28:23.277Z,11.55
2019-03-26T08:30:51.721Z,11.85
2019-03-26T08:33:23.242Z,11.97
2019-03-26T08:35:50.321Z,12.00
2019-03-26T08:38:18.766Z,12.60
2019-03-26T08:40:47.204Z,12.45
2019-03-26T08:43:15.638Z,12.68
2019-03-26T08:45:44.081Z,12.23
2019-03-26T08:48:12.854Z,12.15
2019-03-26T08:50:41.321Z,11.50
2019-03-26T08:53:09.769Z,11.93
2019-03-26T08:55:38.218Z,10.53
2019-03-26T08:58:06.765Z,10.68
2019-03-26T09:00:35.221Z,10.63
2019-03-26T09:03:03.669Z,10.35
2019-03-26T09:05:32.167Z,10.05
2019-03-26T09:08:00.612Z,9.90
2019-03-26T09:10:29.036Z,9.40
2019-03-26T09:12:57.476Z,9.30
2019-03-26T09:15:25.907Z,10.20
2019-03-26T09:17:54.349Z,9.90
2019-03-26T09:20:23.115Z,7.97
2019-03-26T09:22:51.558Z,8.78
2019-03-26T09:25:19.985Z,9.10
2019-03-26T09:27:48.487Z,8.78
2019-03-26T09:30:17.062Z,9.18
2019-03-26T09:32:45.505Z,9.20
2019-03-26T09:35:14.729Z,8.03
2019-03-26T09:37:43.513Z,8.88
2019-03-26T09:40:12.477Z,9.00
2019-03-26T09:42:40.925Z,8.40
2019-03-26T09:45:10.583Z,8.35
2019-03-26T09:47:39.306Z,8.10
2019-03-26T09:50:09.926Z,8.38
2019-03-26T09:52:38.357Z,8.05
2019-03-26T09:55:08.921Z,8.20
2019-03-26T09:57:37.722Z,7.77
2019-03-26T10:00:08.970Z,7.72
2019-03-26T10:02:37.489Z,8.15
2019-03-26T10:05:07.356Z,8.10
2019-03-26T10:07:36.045Z,8.18
2019-03-26T10:10:06.938Z,7.80
2019-03-26T10:12:35.369Z,8.23
2019-03-26T10:15:05.850Z,7.87
2019-03-26T10:17:34.290Z,8.18
2019-03-26T10:20:02.784Z,8.35
2019-03-26T10:22:31.224Z,9.03
2019-03-26T10:24:59.649Z,7.50
2019-03-26T10:27:28.104Z,8.60
2019-03-26T10:29:56.526Z,7.85
2019-03-26T10:32:24.987Z,8.23
2019-03-26T10:34:53.449Z,8.15
2019-03-26T10:37:22.237Z,5.65
2019-03-26T10:39:50.657Z,6.47
2019-03-26T10:42:19.106Z,5.83
2019-03-26T10:44:47.931Z,6.12
2019-03-26T10:47:16.403Z,5.85
2019-03-26T10:49:45.091Z,6.10
2019-03-26T10:52:13.566Z,5.62
2019-03-26T10:54:42.086Z,6.62
2019-03-26T10:57:10.517Z,6.95
2019-03-26T10:59:38.962Z,5.92
2019-03-26T11:02:07.417Z,7.33
2019-03-26T11:04:36.150Z,6.30
2019-03-26T11:07:04.572Z,5.85
2019-03-26T11:09:33.014Z,7.08
2019-03-26T11:12:01.477Z,6.03
2019-03-26T11:14:31.769Z,8.03
2019-03-26T11:17:00.093Z,8.05
2019-03-26T11:19:28.524Z,8.38
2019-03-26T11:21:56.946Z,8.78
2019-03-26T11:24:25.384Z,8.45
2019-03-26T11:26:54.129Z,8.35
2019-03-26T11:29:22.561Z,6.17
2019-03-26T11:31:51.001Z,6.50
2019-03-26T11:34:19.429Z,5.95
2019-03-26T11:36:47.861Z,7.05
2019-03-26T11:39:16.297Z,5.28
2019-03-26T11:41:44.727Z,4.97
2019-03-26T11:44:13.169Z,5.50
2019-03-26T11:46:41.597Z,4.58
2019-03-26T11:49:10.062Z,5.45
2019-03-26T11:51:38.489Z,5.25
2019-03-26T11:54:06.946Z,4.90
2019-03-26T11:56:35.706Z,5.97
2019-03-26T11:59:04.305Z,5.40
2019-03-26T12:01:32.721Z,5.10
2019-03-26T12:04:01.185Z,5.87
2019-03-26T12:06:29.613Z,6.33
2019-03-26T12:08:58.044Z,6.03
2019-03-26T12:11:26.534Z,5.90
2019-03-26T12:13:54.984Z,5.83
2019-03-26T12:16:23.412Z,5.17
2019-03-26T12:18:51.869Z,5.55
2019-03-26T12:21:20.558Z,5.35
2019-03-26T12:23:48.988Z,5.92
2019-03-26T12:26:17.425Z,6.70
2019-03-26T12:28:45.870Z,6.10
2019-03-26T12:31:14.297Z,4.60
2019-03-26T12:33:42.806Z,5.05
2019-03-26T12:36:11.234Z,4.43
2019-03-26T12:38:39.668Z,4.80
2019-03-26T12:41:08.102Z,5.20
2019-03-26T12:43:36.609Z,5.65
2019-03-26T12:46:05.311Z,6.27
2019-03-26T12:48:33.745Z,4.85
2019-03-26T12:51:02.174Z,6.45
2019-03-26T12:53:30.605Z,5.78
2019-03-26T12:55:59.206Z,5.53
2019-03-26T12:58:32.124Z,5.05
2019-03-26T13:00:58.567Z,6.10
2019-03-26T13:03:26.996Z,6.03
2019-03-26T13:05:55.432Z,5.85
2019-03-26T13:08:23.853Z,6.25
2019-03-26T13:10:53.849Z,6.40
2019-03-26T13:13:22.454Z,6.05
2019-03-26T13:15:50.886Z,5.62
2019-03-26T13:18:19.311Z,5.62
2019-03-26T13:20:47.997Z,5.35
2019-03-26T13:23:16.886Z,5.15
2019-03-26T13:25:45.392Z,5.30
2019-03-26T13:28:13.818Z,5.47
2019-03-26T13:30:42.260Z,4.47
2019-03-26T13:33:10.677Z,4.50
2019-03-26T13:35:39.118Z,4.58
2019-03-26T13:38:07.795Z,5.10
2019-03-26T13:40:36.249Z,5.70
2019-03-26T13:43:04.873Z,4.15
2019-03-26T13:45:33.309Z,3.45
2019-03-26T13:48:01.731Z,4.25
2019-03-26T13:50:30.167Z,4.00
2019-03-26T13:52:58.594Z,4.40
2019-03-26T13:55:27.032Z,5.08
2019-03-26T13:57:55.729Z,4.97
2019-03-26T14:00:35.093Z,4.78
2019-03-26T14:03:04.063Z,4.53
2019-03-26T14:05:32.498Z,5.08
2019-03-26T14:08:01.341Z,4.78
2019-03-26T14:10:40.196Z,4.72
2019-03-26T14:13:00.355Z,5.10
2019-03-26T14:15:29.134Z,4.83
2019-03-26T14:17:57.561Z,5.15
2019-03-26T14:20:26.091Z,5.00
2019-03-26T14:22:54.518Z,4.80
2019-03-26T14:25:23.021Z,4.90
2019-03-26T14:27:51.750Z,5.17
2019-03-26T14:30:40.801Z,4.83
2019-03-26T14:33:09.968Z,4.70
2019-03-26T14:35:38.554Z,4.60
2019-03-26T14:38:07.378Z,4.95
2019-03-26T14:40:36.074Z,4.87
2019-03-26T14:43:04.849Z,5.05
2019-03-26T14:45:33.356Z,4.87
2019-03-26T14:48:01.854Z,5.53
2019-03-26T14:50:30.291Z,5.58
2019-03-26T14:52:58.720Z,5.80
2019-03-26T14:55:27.177Z,5.03
2019-03-26T14:57:55.609Z,4.03
2019-03-26T15:00:24.045Z,5.00
2019-03-26T15:02:52.470Z,5.00
2019-03-26T15:05:20.933Z,5.03
2019-03-26T15:07:49.433Z,5.45
2019-03-26T15:10:18.029Z,5.78
2019-03-26T15:12:46.457Z,5.20
2019-03-26T15:15:15.238Z,5.08
2019-03-26T15:17:43.678Z,5.75
2019-03-26T15:20:12.638Z,5.72
2019-03-26T15:22:41.081Z,5.80
2019-03-26T15:25:09.641Z,5.60
2019-03-26T15:27:38.086Z,5.17
2019-03-26T15:30:08.258Z,5.42
2019-03-26T15:32:36.689Z,5.78
2019-03-26T15:35:06.361Z,5.05
2019-03-26T15:37:34.801Z,5.28
2019-03-26T15:40:03.903Z,5.53
2019-03-26T15:42:32.340Z,5.05
2019-03-26T15:45:00.789Z,5.45
2019-03-26T15:47:29.286Z,5.08
2019-03-26T15:50:01.291Z,4.72
2019-03-26T15:52:29.908Z,5.00
2019-03-26T15:54:58.331Z,4.97
2019-03-26T15:57:27.025Z,4.80
2019-03-26T15:59:55.714Z,4.45
2019-03-26T16:02:24.237Z,4.55
2019-03-26T16:04:52.699Z,6.10
2019-03-26T16:07:21.466Z,6.22
2019-03-26T16:09:49.944Z,7.05
2019-03-26T16:12:18.393Z,5.45
2019-03-26T16:14:46.820Z,5.12
2019-03-26T16:17:15.270Z,4.55
2019-03-26T16:19:43.690Z,4.50
2019-03-26T16:22:12.164Z,5.25
2019-03-26T16:24:40.582Z,5.45
2019-03-26T16:27:09.022Z,5.10
2019-03-26T16:29:37.452Z,6.28
2019-03-26T16:32:05.893Z,5.70
2019-03-26T16:34:34.321Z,5.40
2019-03-26T16:37:02.757Z,5.20
2019-03-26T16:39:31.185Z,5.28
2019-03-26T16:41:59.630Z,5.30
2019-03-26T16:44:28.048Z,5.20
2019-03-26T16:46:56.501Z,4.95
2019-03-26T16:49:24.921Z,4.85
2019-03-26T16:51:53.366Z,5.45
2019-03-26T16:54:21.790Z,5.00
2019-03-26T16:56:50.248Z,4.62
2019-03-26T16:59:18.669Z,5.60
2019-03-26T17:01:47.124Z,5.40
2019-03-26T17:04:15.544Z,4.87
2019-03-26T17:06:44.037Z,5.53
2019-03-26T17:09:12.494Z,5.42
2019-03-26T17:11:40.919Z,6.45
2019-03-26T17:14:09.352Z,6.35
2019-03-26T17:16:37.886Z,5.40
2019-03-26T17:19:06.332Z,5.60
2019-03-26T17:21:34.758Z,6.55
2019-03-26T17:24:03.542Z,6.53
2019-03-26T17:26:32.007Z,5.25
2019-03-26T17:29:00.438Z,5.95
2019-03-26T17:31:28.877Z,5.90
2019-03-26T17:33:57.386Z,7.03
2019-03-26T17:36:25.897Z,7.10
2019-03-26T17:38:54.334Z,6.92
2019-03-26T17:41:23.113Z,7.78
2019-03-26T17:43:51.902Z,6.92
2019-03-26T17:46:20.337Z,6.45
2019-03-26T17:48:48.783Z,6.87
2019-03-26T17:51:17.213Z,7.00
2019-03-26T17:53:45.717Z,8.45
2019-03-26T17:56:14.137Z,8.73
2019-03-26T17:58:42.582Z,8.05
2019-03-26T18:01:11.277Z,7.87
2019-03-26T18:03:39.857Z,8.28
2019-03-26T18:06:08.292Z,8.73
2019-03-26T18:08:36.725Z,8.08
2019-03-26T18:11:05.156Z,8.27
2019-03-26T18:13:33.605Z,9.60
2019-03-26T18:16:02.062Z,11.75
2019-03-26T18:18:30.553Z,9.73
2019-03-26T18:20:59.010Z,8.63
2019-03-26T18:23:27.701Z,9.88
2019-03-26T18:25:56.124Z,7.33
2019-03-26T18:28:24.576Z,7.50
2019-03-26T18:30:53.009Z,8.68
2019-03-26T18:33:21.469Z,8.85
2019-03-26T18:35:49.930Z,9.13
2019-03-26T18:38:18.354Z,8.28
2019-03-26T18:40:47.042Z,11.45
2019-03-26T18:43:15.489Z,12.03
2019-03-26T18:45:43.916Z,11.95
2019-03-26T18:48:12.361Z,13.75
2019-03-26T18:50:40.790Z,10.98
2019-03-26T18:53:09.235Z,9.83
2019-03-26T18:55:37.666Z,8.48
2019-03-26T18:58:06.109Z,9.20
2019-03-26T19:00:36.678Z,9.75
2019-03-26T19:03:06.491Z,9.55
2019-03-26T19:05:34.917Z,12.73
2019-03-26T19:08:03.890Z,11.85
2019-03-26T19:10:34.641Z,13.43
2019-03-26T19:13:03.514Z,11.57
2019-03-26T19:15:32.380Z,11.60
2019-03-26T19:18:00.961Z,11.90
2019-03-26T19:20:29.665Z,14.28
2019-03-26T19:22:58.101Z,13.28
2019-03-26T19:25:26.552Z,11.20
2019-03-26T19:27:55.049Z,13.50
2019-03-26T19:30:23.497Z,13.85
2019-03-26T19:32:51.937Z,12.33
2019-03-26T19:35:20.393Z,10.68
2019-03-26T19:37:48.813Z,10.48
2019-03-26T19:40:17.406Z,9.25
2019-03-26T19:42:45.869Z,15.53
2019-03-26T19:45:14.446Z,16.05
2019-03-26T19:47:42.976Z,16.05
2019-03-26T19:50:12.045Z,11.22
2019-03-26T19:52:40.512Z,8.58
2019-03-26T19:55:09.729Z,8.98
2019-03-26T19:57:38.178Z,12.30
2019-03-26T20:00:12.458Z,19.62
2019-03-26T20:02:40.884Z,9.40
2019-03-26T20:05:10.422Z,9.88
2019-03-26T20:07:38.853Z,9.93
2019-03-26T20:10:08.866Z,8.68
2019-03-26T20:12:37.372Z,10.45
2019-03-26T20:15:10.621Z,9.90
2019-03-26T20:17:39.054Z,8.40
2019-03-26T20:20:09.429Z,8.30
2019-03-26T20:22:37.859Z,8.15
2019-03-26T20:25:07.038Z,8.40
2019-03-26T20:27:35.465Z,8.78
2019-03-26T20:30:07.045Z,11.35
2019-03-26T20:32:35.727Z,10.28
2019-03-26T20:35:09.693Z,9.93
2019-03-26T20:37:38.133Z,9.13
2019-03-26T20:40:08.962Z,9.23
2019-03-26T20:42:40.529Z,9.53
2019-03-26T20:45:14.212Z,8.18
2019-03-26T20:47:41.242Z,8.18
2019-03-26T20:50:10.815Z,7.12
2019-03-26T20:52:39.325Z,8.65
2019-03-26T20:55:10.116Z,7.97
2019-03-26T20:57:38.566Z,7.40
2019-03-26T21:00:09.012Z,8.35
2019-03-26T21:02:37.453Z,9.15
2019-03-26T21:05:08.018Z,8.40
2019-03-26T21:07:37.619Z,7.65
2019-03-26T21:10:08.317Z,9.05
2019-03-26T21:12:37.106Z,8.47
2019-03-26T21:15:26.398Z,8.80
2019-03-26T21:17:55.109Z,9.03
2019-03-26T21:20:23.545Z,8.73
2019-03-26T21:22:52.013Z,8.00
2019-03-26T21:25:20.430Z,8.28
2019-03-26T21:27:48.897Z,8.08
2019-03-26T21:30:17.384Z,8.33
2019-03-26T21:32:45.832Z,8.73
2019-03-26T21:35:14.489Z,8.45
2019-03-26T21:37:43.006Z,8.23
2019-03-26T21:40:11.778Z,8.43
2019-03-26T21:42:40.232Z,8.00
2019-03-26T21:45:11.017Z,8.60
2019-03-26T21:47:39.711Z,8.58
2019-03-26T21:50:08.910Z,9.10
2019-03-26T21:52:37.369Z,8.75
2019-03-26T21:55:08.403Z,8.40
2019-03-26T21:57:36.852Z,8.10
2019-03-26T22:00:09.657Z,7.28
2019-03-26T22:02:38.102Z,8.20
2019-03-26T22:05:10.141Z,8.78
2019-03-26T22:10:08.340Z,7.95
2019-03-26T22:12:37.141Z,8.20
2019-03-26T22:15:10.564Z,7.67
2019-03-26T22:17:39.005Z,7.12
2019-03-26T22:20:08.502Z,7.47
2019-03-26T22:22:36.946Z,7.78
2019-03-26T22:25:07.472Z,7.20
2019-03-26T22:27:35.990Z,6.83
2019-03-26T22:30:07.454Z,7.10
2019-03-26T22:32:35.968Z,7.10
2019-03-26T22:35:07.000Z,6.83
2019-03-26T22:37:35.435Z,7.23
2019-03-26T22:40:06.218Z,7.33
2019-03-26T22:42:34.650Z,8.08
2019-03-26T22:45:04.154Z,6.37
2019-03-26T22:47:32.581Z,6.75
2019-03-26T22:50:01.015Z,7.60
2019-03-26T22:52:29.442Z,7.00
2019-03-26T22:54:57.879Z,6.70
2019-03-26T22:57:26.311Z,6.62
2019-03-26T22:59:54.745Z,6.55
2019-03-26T23:02:23.446Z,6.75
2019-03-26T23:04:51.886Z,6.95
2019-03-26T23:07:20.317Z,7.62
2019-03-26T23:09:48.753Z,6.55
2019-03-26T23:12:17.186Z,6.70
2019-03-26T23:14:45.736Z,6.90
2019-03-26T23:17:14.300Z,6.90
2019-03-26T23:19:42.744Z,8.28
2019-03-26T23:22:11.168Z,5.97
2019-03-26T23:24:39.886Z,6.12
2019-03-26T23:27:08.324Z,5.55
2019-03-26T23:29:36.758Z,6.72
2019-03-26T23:32:05.194Z,6.25
2019-03-26T23:34:33.631Z,6.47
2019-03-26T23:37:02.394Z,6.97
2019-03-26T23:39:30.829Z,6.78
2019-03-26T23:41:59.257Z,6.70
2019-03-26T23:44:27.693Z,7.83
2019-03-26T23:46:56.125Z,7.37
2019-03-26T23:49:24.576Z,7.37
2019-03-26T23:51:53.006Z,7.42
2019-03-26T23:54:21.457Z,8.43
2019-03-26T23:56:49.964Z,7.35
2019-03-26T23:59:18.409Z,8.48
